Time;durP1;ratioP1;P1;durP2;ratioP2;P2;SDS_P1;SDS_P2;PMS_P1;PMS_P2;Temp;Humidity;BMP_temperature;BMP_pressure;BME280_temperature;BME280_humidity;BME280_pressure;Samples;Min_cycle;Max_cycle;Signal;HPM_P1;HPM_P2
2021/08/30 00:01:10;;;;;;;26.98;16.45;;;;;;;15.64;93.17;101631.34;5002896;28;20476;-75
2021/08/30 00:03:36;;;;;;;25.77;16.23;;;;;;;15.63;93.27;101634.13;4984856;28;20030;-76
2021/08/30 00:06:01;;;;;;;22.08;13.73;;;;;;;15.64;93.07;101633.97;5002554;28;20415;-75
2021/08/30 00:08:27;;;;;;;26.83;16.38;;;;;;;15.68;92.74;101632.63;5004447;28;20033;-74
2021/08/30 00:10:52;;;;;;;27.95;17.02;;;;;;;15.66;92.81;101628.56;5002063;28;20038;-75
2021/08/30 00:13:18;;;;;;;26.83;16.48;;;;;;;15.62;92.93;101629.91;5002742;28;20045;-76
2021/08/30 00:15:43;;;;;;;23.85;15.68;;;;;;;15.62;93.37;101629.91;5006582;28;20116;-75
2021/08/30 00:18:09;;;;;;;26.40;15.30;;;;;;;15.70;92.84;101635.88;4987963;28;20031;-76
2021/08/30 00:20:34;;;;;;;23.95;14.25;;;;;;;15.62;93.23;101633.31;5004899;28;20030;-76
2021/08/30 00:22:59;;;;;;;26.80;17.10;;;;;;;15.65;93.18;101626.91;5003735;28;20566;-76
2021/08/30 00:25:25;;;;;;;24.58;14.80;;;;;;;15.61;93.38;101628.25;4985290;28;20065;-75
2021/08/30 00:27:50;;;;;;;25.92;15.27;;;;;;;15.61;93.41;101626.44;4986273;28;20058;-75
2021/08/30 00:30:16;;;;;;;31.20;16.13;;;;;;;15.58;92.73;101632.03;4986098;28;20744;-74
2021/08/30 00:32:42;;;;;;;25.65;15.13;;;;;;;15.59;93.21;101636.25;5002108;28;20034;-74
2021/08/30 00:35:08;;;;;;;26.95;16.27;;;;;;;15.60;92.77;101643.13;5001001;28;20085;-75
2021/08/30 00:37:33;;;;;;;27.92;16.42;;;;;;;15.55;93.05;101645.41;5000691;28;20045;-74
2021/08/30 00:39:59;;;;;;;23.60;14.90;;;;;;;15.54;93.15;101633.34;4987741;28;20049;-74
2021/08/30 00:42:26;;;;;;;27.50;15.32;;;;;;;15.56;93.34;101640.03;5002049;28;20488;-74
2021/08/30 00:44:53;;;;;;;29.40;16.52;;;;;;;15.61;93.33;101633.47;4985869;28;21934;-74
2021/08/30 00:47:19;;;;;;;35.33;17.20;;;;;;;15.69;92.59;101630.81;4998526;28;20030;-74
2021/08/30 00:49:44;;;;;;;31.10;16.55;;;;;;;15.57;92.82;101627.78;5001078;28;20042;-75
2021/08/30 00:52:10;;;;;;;30.00;17.08;;;;;;;15.52;92.93;101630.06;4982751;28;20301;-74
2021/08/30 00:54:35;;;;;;;27.27;16.33;;;;;;;15.46;93.27;101639.38;5001260;28;20050;-74
2021/08/30 00:57:03;;;;;;;34.67;17.52;;;;;;;15.49;93.44;101633.84;5002134;28;20042;-74
2021/08/30 00:59:29;;;;;;;30.73;17.30;;;;;;;15.67;92.26;101638.84;4983627;28;20117;-75
2021/08/30 01:01:55;;;;;;;36.13;17.58;;;;;;;15.51;92.35;101633.69;5003283;28;20082;-75
2021/08/30 01:04:20;;;;;;;27.83;17.60;;;;;;;15.53;92.55;101629.09;5003240;28;20057;-75
2021/08/30 01:07:01;;;;;;;27.45;16.95;;;;;;;15.50;92.95;101635.47;4985311;28;20518;-76
2021/08/30 01:09:46;;;;;;;32.80;17.00;;;;;;;15.48;92.84;101636.63;4986112;28;20034;-75
2021/08/30 01:12:16;;;;;;;32.38;16.27;;;;;;;15.47;92.82;101641.03;5003643;28;20030;-76
2021/08/30 01:14:49;;;;;;;30.25;16.55;;;;;;;15.51;92.41;101639.72;4999833;28;20062;-73
2021/08/30 01:17:17;;;;;;;26.48;15.27;;;;;;;15.45;92.75;101632.56;5003192;28;20100;-75
2021/08/30 01:19:48;;;;;;;31.65;17.13;;;;;;;15.45;92.53;101637.78;4985770;28;20037;-75
2021/08/30 01:22:15;;;;;;;30.33;16.48;;;;;;;15.46;92.51;101631.56;4985928;28;20072;-73
2021/08/30 01:24:42;;;;;;;25.25;15.27;;;;;;;15.38;92.61;101642.84;5004773;28;20022;-74
2021/08/30 01:27:08;;;;;;;27.73;17.13;;;;;;;15.39;92.81;101635.84;4990618;28;20110;-74
2021/08/30 01:30:11;;;;;;;30.33;17.50;;;;;;;15.38;92.53;101639.44;5002197;28;20133;-74
2021/08/30 01:32:51;;;;;;;25.70;15.93;;;;;;;15.34;92.75;101633.72;4979719;28;20038;-74
2021/08/30 01:35:19;;;;;;;29.38;15.80;;;;;;;15.35;92.53;101637.97;4985115;28;20042;-74
2021/08/30 01:37:47;;;;;;;26.33;14.50;;;;;;;15.32;92.96;101643.53;4991085;28;20041;-73
2021/08/30 01:40:15;;;;;;;27.00;16.65;;;;;;;15.43;92.46;101650.19;4983991;28;20120;-74
2021/08/30 01:42:44;;;;;;;28.58;15.88;;;;;;;15.41;92.09;101651.31;4999238;28;20503;-74
2021/08/30 01:45:12;;;;;;;29.42;15.68;;;;;;;15.40;92.54;101652.31;5001649;28;20042;-73
2021/08/30 01:47:41;;;;;;;29.48;16.02;;;;;;;15.40;92.74;101655.75;4985259;28;20104;-74
2021/08/30 01:50:08;;;;;;;26.27;16.77;;;;;;;15.36;92.59;101657.06;5000955;28;20124;-73
2021/08/30 01:52:43;;;;;;;31.30;16.13;;;;;;;15.35;92.84;101648.41;5001759;28;20042;-74
2021/08/30 01:55:40;;;;;;;32.97;15.70;;;;;;;15.38;92.39;101647.25;4984133;28;20050;-75
2021/08/30 02:03:08;;;;;;;30.05;17.02;;;;;;;15.25;92.54;101653.00;4989375;28;20460;-74
2021/08/30 02:05:33;;;;;;;31.58;16.85;;;;;;;15.25;92.83;101645.16;4985844;28;20061;-74
2021/08/30 02:07:59;;;;;;;28.48;17.75;;;;;;;15.24;92.96;101647.94;4985457;28;20034;-74
2021/08/30 02:10:24;;;;;;;27.13;17.10;;;;;;;15.28;92.76;101644.84;5000700;28;20080;-76
2021/08/30 02:12:50;;;;;;;32.97;18.83;;;;;;;15.27;92.71;101656.25;4999039;28;20314;-74
2021/08/30 02:15:15;;;;;;;27.52;17.08;;;;;;;15.27;92.31;101661.47;4998013;28;20041;-73
2021/08/30 02:17:47;;;;;;;31.38;17.02;;;;;;;15.24;92.58;101659.22;4981558;28;20488;-73
2021/08/30 02:20:18;;;;;;;29.70;15.82;;;;;;;15.23;92.62;101662.00;4998920;28;20034;-74
2021/08/30 02:22:45;;;;;;;32.60;17.92;;;;;;;15.22;92.73;101663.81;4982792;28;20051;-73
2021/08/30 02:25:17;;;;;;;29.05;16.63;;;;;;;15.23;92.74;101656.78;5002829;28;20382;-74
2021/08/30 02:27:53;;;;;;;30.27;17.35;;;;;;;15.32;92.48;101651.34;4982537;28;20592;-74
2021/08/30 02:30:24;;;;;;;35.55;19.65;;;;;;;15.24;92.46;101661.00;4986423;28;20030;-73
2021/08/30 02:32:51;;;;;;;34.08;18.40;;;;;;;15.23;92.54;101665.41;4984437;28;20026;-74
2021/08/30 02:35:20;;;;;;;31.70;17.58;;;;;;;15.28;92.23;101659.72;5000022;28;20026;-72
2021/08/30 02:37:48;;;;;;;29.77;18.23;;;;;;;15.21;92.25;101656.13;4998881;28;20038;-73
2021/08/30 02:40:16;;;;;;;35.60;17.60;;;;;;;15.32;92.10;101661.00;4985067;28;20092;-74
2021/08/30 02:42:42;;;;;;;31.83;17.42;;;;;;;15.26;92.07;101654.66;4997529;28;20045;-74
2021/08/30 02:45:09;;;;;;;27.98;16.65;;;;;;;15.21;92.39;101651.69;4985284;28;20673;-74
2021/08/30 02:47:36;;;;;;;28.35;17.33;;;;;;;15.23;92.55;101649.75;4984129;28;20125;-75
2021/08/30 02:50:04;;;;;;;28.73;16.65;;;;;;;15.22;92.42;101642.91;4982699;28;20044;-74
2021/08/30 02:52:31;;;;;;;36.95;18.52;;;;;;;15.24;92.33;101651.38;4984138;28;20030;-74
2021/08/30 02:54:57;;;;;;;30.75;18.48;;;;;;;15.21;92.21;101653.50;4999535;28;20046;-75
2021/08/30 02:57:24;;;;;;;30.05;17.05;;;;;;;15.18;92.57;101652.88;4985302;28;20042;-75
2021/08/30 02:59:51;;;;;;;30.48;18.48;;;;;;;15.21;92.38;101653.50;4986018;28;20073;-74
2021/08/30 03:02:22;;;;;;;36.10;19.15;;;;;;;15.22;92.23;101645.50;4997710;28;20101;-74
2021/08/30 03:04:48;;;;;;;29.40;17.38;;;;;;;15.26;92.05;101649.41;4987017;28;20035;-73
2021/08/30 03:07:15;;;;;;;28.38;17.33;;;;;;;15.17;92.28;101656.44;4999278;28;20396;-74
2021/08/30 03:09:40;;;;;;;28.13;15.85;;;;;;;15.15;92.32;101647.16;4985569;28;20029;-73
2021/08/30 03:12:09;;;;;;;26.63;15.57;;;;;;;15.14;92.57;101650.72;4982275;28;20408;-74
2021/08/30 03:14:37;;;;;;;32.53;17.40;;;;;;;15.10;92.89;101649.44;4985672;28;20142;-74
2021/08/30 03:17:09;;;;;;;25.17;16.13;;;;;;;15.11;92.86;101648.47;4996373;28;20038;-73
2021/08/30 03:19:39;;;;;;;31.70;16.47;;;;;;;15.12;93.17;101645.66;4999633;28;20050;-74
2021/08/30 03:22:05;;;;;;;28.50;16.92;;;;;;;15.17;92.78;101639.97;5000231;28;20019;-74
2021/08/30 03:24:31;;;;;;;27.08;17.27;;;;;;;15.13;92.57;101646.50;4984291;28;20038;-74
2021/08/30 03:26:57;;;;;;;27.60;16.52;;;;;;;15.27;92.21;101647.63;5002328;28;20030;-74
2021/08/30 03:29:24;;;;;;;24.42;16.25;;;;;;;15.18;92.12;101649.41;4984515;28;20022;-74
2021/08/30 03:31:51;;;;;;;26.23;16.35;;;;;;;15.16;92.21;101651.38;4988656;28;20034;-74
2021/08/30 03:34:20;;;;;;;29.75;17.33;;;;;;;15.16;92.52;101656.59;4989972;28;20578;-73
2021/08/30 03:36:47;;;;;;;23.83;15.80;;;;;;;15.16;92.49;101654.00;4991192;28;20072;-74
2021/08/30 03:39:13;;;;;;;25.92;16.25;;;;;;;15.19;92.54;101651.88;5005294;28;20037;-73
2021/08/30 03:41:39;;;;;;;31.85;16.13;;;;;;;15.21;92.33;101658.72;5003368;28;20149;-73
2021/08/30 03:44:05;;;;;;;26.00;15.35;;;;;;;15.14;92.37;101658.56;4988001;28;20030;-75
2021/08/30 03:46:32;;;;;;;24.65;14.55;;;;;;;15.21;92.16;101648.28;4990864;28;20037;-75
2021/08/30 03:48:58;;;;;;;29.15;15.48;;;;;;;15.16;92.41;101654.00;5002864;28;20038;-74
2021/08/30 03:51:24;;;;;;;28.00;14.88;;;;;;;15.13;92.79;101655.16;4988569;28;20038;-74
2021/08/30 03:53:51;;;;;;;28.40;15.80;;;;;;;15.10;92.87;101665.09;4989109;28;20030;-74
2021/08/30 03:56:18;;;;;;;27.65;15.98;;;;;;;15.15;92.67;101658.41;4987538;28;20030;-73
2021/08/30 03:58:45;;;;;;;28.05;15.07;;;;;;;15.11;92.76;101654.50;4985514;28;20158;-74
2021/08/30 04:01:14;;;;;;;27.50;17.25;;;;;;;15.12;92.43;101653.50;4986285;28;20413;-73
2021/08/30 04:03:42;;;;;;;24.67;14.57;;;;;;;15.16;92.33;101646.16;4987278;28;20054;-74
2021/08/30 04:06:09;;;;;;;26.38;15.43;;;;;;;15.13;92.58;101643.88;4986907;28;20038;-73
2021/08/30 04:08:34;;;;;;;26.40;15.73;;;;;;;15.11;92.37;101649.28;5001835;28;20053;-73
2021/08/30 04:11:01;;;;;;;26.27;15.90;;;;;;;15.13;92.67;101649.13;4986705;28;20065;-74
2021/08/30 04:13:27;;;;;;;31.55;18.38;;;;;;;15.17;92.42;101646.00;4984929;28;20030;-73
2021/08/30 04:15:52;;;;;;;32.25;16.42;;;;;;;15.09;92.67;101653.03;4987182;28;20153;-73
2021/08/30 04:18:18;;;;;;;26.05;16.42;;;;;;;15.16;92.69;101648.75;4987330;28;20611;-74
2021/08/30 04:20:43;;;;;;;27.23;15.68;;;;;;;15.16;92.22;101643.53;4988350;28;20041;-73
2021/08/30 04:23:09;;;;;;;27.60;15.82;;;;;;;15.13;92.62;101646.50;4987329;28;20369;-74
2021/08/30 04:25:34;;;;;;;27.48;16.13;;;;;;;15.16;92.42;101659.22;4986026;28;20089;-74
2021/08/30 04:28:00;;;;;;;28.77;17.08;;;;;;;15.14;92.42;101651.56;5003589;28;20046;-72
2021/08/30 04:30:25;;;;;;;26.42;15.88;;;;;;;15.13;92.26;101659.56;5001125;28;20038;-74
2021/08/30 04:32:54;;;;;;;30.38;15.82;;;;;;;15.10;92.54;101659.88;5002174;28;20092;-73
2021/08/30 04:35:20;;;;;;;31.50;16.48;;;;;;;15.11;92.84;101664.13;5001992;28;20045;-73
2021/08/30 04:37:45;;;;;;;29.98;16.17;;;;;;;15.06;93.08;101662.00;4987818;28;20026;-74
2021/08/30 04:40:12;;;;;;;36.25;18.17;;;;;;;15.08;93.03;101661.84;4985810;28;20042;-73
2021/08/30 04:42:37;;;;;;;27.50;15.65;;;;;;;15.08;93.03;101664.47;5002851;28;20057;-73
2021/08/30 04:45:03;;;;;;;33.13;17.38;;;;;;;15.08;93.16;101667.06;4985800;28;20492;-74
2021/08/30 04:47:29;;;;;;;30.83;17.65;;;;;;;15.10;92.90;101676.34;4988547;28;20091;-74
2021/08/30 04:49:54;;;;;;;30.63;17.20;;;;;;;15.14;92.84;101674.25;5006385;28;20053;-73
2021/08/30 04:52:20;;;;;;;35.00;19.42;;;;;;;15.09;92.89;101674.75;5001080;28;20050;-74
2021/08/30 04:54:45;;;;;;;33.85;18.85;;;;;;;15.10;92.84;101671.13;4988285;28;20038;-76
2021/08/30 04:57:11;;;;;;;29.92;18.00;;;;;;;15.10;92.93;101676.34;5002802;28;20045;-74
2021/08/30 04:59:36;;;;;;;33.50;18.00;;;;;;;15.11;92.74;101672.78;5002832;28;20085;-74
2021/08/30 05:02:02;;;;;;;35.92;18.30;;;;;;;15.12;92.71;101682.22;5002679;28;20106;-73
2021/08/30 05:04:28;;;;;;;28.08;17.13;;;;;;;15.08;92.90;101677.50;4988537;28;20641;-76
2021/08/30 05:06:53;;;;;;;32.88;19.02;;;;;;;15.14;93.03;101684.69;5004001;28;20037;-74
2021/08/30 05:09:18;;;;;;;35.35;18.05;;;;;;;15.11;92.97;101682.44;4989593;28;20401;-74
2021/08/30 05:11:44;;;;;;;34.97;18.63;;;;;;;15.17;92.65;101679.16;5006403;28;20132;-74
2021/08/30 05:14:09;;;;;;;33.88;18.88;;;;;;;15.13;92.70;101680.47;5002150;28;20038;-73
2021/08/30 05:16:35;;;;;;;32.95;17.95;;;;;;;15.15;92.36;101681.91;4987834;28;20053;-74
2021/08/30 05:19:00;;;;;;;36.70;20.75;;;;;;;15.14;92.73;101684.69;5001284;28;20057;-74
2021/08/30 05:21:26;;;;;;;37.17;20.23;;;;;;;15.19;92.34;101685.81;4984834;28;20041;-73
2021/08/30 05:23:51;;;;;;;38.20;19.38;;;;;;;15.21;91.87;101680.44;4998419;28;20413;-73
2021/08/30 05:26:17;;;;;;;31.88;19.95;;;;;;;15.21;91.94;101690.09;4986913;28;20547;-74
2021/08/30 05:28:42;;;;;;;32.85;19.08;;;;;;;15.17;92.13;101679.16;5001730;28;20038;-74
2021/08/30 05:31:08;;;;;;;31.25;18.73;;;;;;;15.20;92.15;101686.66;4999813;28;20038;-74
2021/08/30 05:33:36;;;;;;;33.05;19.45;;;;;;;15.16;92.78;101685.34;4986705;28;20026;-73
2021/08/30 05:36:01;;;;;;;32.13;18.65;;;;;;;15.22;92.71;101682.09;4998115;28;20034;-74
2021/08/30 05:38:27;;;;;;;30.40;17.35;;;;;;;15.23;92.17;101682.91;5001195;28;20037;-74
2021/08/30 05:40:52;;;;;;;33.10;18.98;;;;;;;15.26;92.13;101691.22;5000494;28;20528;-74
2021/08/30 05:43:17;;;;;;;30.73;17.10;;;;;;;15.27;92.23;101694.63;5001250;28;20050;-74
2021/08/30 05:45:43;;;;;;;32.50;18.60;;;;;;;15.26;92.16;101683.38;5002456;28;20172;-74
2021/08/30 05:48:09;;;;;;;31.58;16.98;;;;;;;15.27;92.45;101689.41;4986807;28;20030;-75
2021/08/30 05:50:34;;;;;;;28.15;18.05;;;;;;;15.29;92.53;101696.09;5002838;28;20070;-74
2021/08/30 05:52:59;;;;;;;31.42;18.27;;;;;;;15.29;92.46;101697.91;5000604;28;20120;-74
2021/08/30 05:55:25;;;;;;;37.38;19.13;;;;;;;15.35;92.55;101705.91;4986695;28;20144;-75
2021/08/30 05:57:50;;;;;;;27.08;15.98;;;;;;;15.31;92.45;101701.16;4999123;28;20042;-73
2021/08/30 06:00:16;;;;;;;31.02;16.50;;;;;;;15.27;92.63;101698.06;4985904;28;20042;-74
2021/08/30 06:02:41;;;;;;;29.05;17.13;;;;;;;15.30;92.68;101696.94;4998705;28;20034;-73
2021/08/30 06:05:07;;;;;;;33.20;17.58;;;;;;;15.37;92.72;101700.53;5000585;28;20038;-74
2021/08/30 06:07:33;;;;;;;33.85;19.15;;;;;;;15.39;92.39;101703.78;4985243;28;20030;-75
2021/08/30 06:09:58;;;;;;;35.45;17.85;;;;;;;15.39;92.36;101703.78;4983314;28;20049;-74
2021/08/30 06:12:24;;;;;;;31.05;16.52;;;;;;;15.36;92.56;101694.47;5000418;28;20149;-74
2021/08/30 06:14:49;;;;;;;31.30;16.40;;;;;;;15.37;92.69;101698.72;5000137;28;20061;-74
2021/08/30 06:17:15;;;;;;;32.08;17.52;;;;;;;15.41;92.44;101706.22;4999585;28;21659;-75
2021/08/30 06:19:42;;;;;;;32.03;17.17;;;;;;;15.41;92.60;101698.38;4986763;28;20034;-74
2021/08/30 06:22:09;;;;;;;30.90;18.08;;;;;;;15.42;92.65;101702.63;4986195;28;20157;-74
2021/08/30 06:24:39;;;;;;;31.08;17.27;;;;;;;15.52;92.24;101696.25;4983831;28;20137;-74
2021/08/30 06:27:05;;;;;;;31.77;17.80;;;;;;;15.53;92.21;101708.31;4986144;28;20439;-74
2021/08/30 06:29:30;;;;;;;30.63;18.83;;;;;;;15.54;92.41;101696.88;5009396;28;20177;-74
2021/08/30 06:31:56;;;;;;;36.40;18.92;;;;;;;15.58;91.90;101697.38;4993859;28;20034;-74
2021/08/30 06:34:21;;;;;;;29.60;17.42;;;;;;;15.54;91.80;101702.13;5002856;28;20100;-74
2021/08/30 06:36:47;;;;;;;27.52;16.45;;;;;;;15.61;92.04;101696.22;5005082;28;20038;-74
2021/08/30 06:39:12;;;;;;;40.05;17.45;;;;;;;15.75;91.67;101688.53;5002191;28;20049;-75
2021/08/30 06:41:38;;;;;;;29.65;17.55;;;;;;;15.75;91.13;101698.19;4984921;28;20034;-75
2021/08/30 06:44:03;;;;;;;32.05;18.15;;;;;;;15.76;91.32;101687.56;5000612;28;20555;-73
2021/08/30 06:46:29;;;;;;;31.58;16.63;;;;;;;15.80;91.37;101702.88;4991374;28;20046;-74
2021/08/30 06:48:54;;;;;;;25.67;17.00;;;;;;;15.77;91.74;101698.81;4998610;28;20451;-74
2021/08/30 06:51:20;;;;;;;30.15;17.83;;;;;;;15.80;91.72;101695.03;4999335;28;20038;-74
2021/08/30 06:53:45;;;;;;;35.53;19.65;;;;;;;15.85;90.74;101695.34;4982495;28;20608;-74
2021/08/30 06:56:11;;;;;;;31.45;16.77;;;;;;;15.81;90.35;101701.91;4985577;28;20046;-74
2021/08/30 06:58:36;;;;;;;34.53;18.50;;;;;;;15.84;90.69;101697.16;4988980;28;20042;-74
2021/08/30 07:01:02;;;;;;;51.08;25.85;;;;;;;15.82;91.19;101696.50;4990407;28;20045;-74
2021/08/30 07:03:27;;;;;;;33.85;17.75;;;;;;;15.85;90.15;101700.59;4999646;28;20034;-74
2021/08/30 07:05:52;;;;;;;31.45;17.17;;;;;;;15.77;90.76;101704.06;4988346;28;20041;-74
2021/08/30 07:08:20;;;;;;;31.55;17.13;;;;;;;15.92;90.28;101693.72;4991365;28;20042;-75
2021/08/30 07:10:45;;;;;;;31.67;17.55;;;;;;;15.94;89.94;101689.13;4989524;28;20025;-74
2021/08/30 07:13:12;;;;;;;34.88;18.85;;;;;;;15.85;90.54;101695.34;5003322;28;20030;-73
2021/08/30 07:15:37;;;;;;;35.00;19.13;;;;;;;15.86;90.22;101699.59;5002143;28;20053;-74
2021/08/30 07:18:03;;;;;;;31.00;17.30;;;;;;;15.93;89.94;101695.31;4987356;28;20034;-74
2021/08/30 07:20:29;;;;;;;31.38;17.42;;;;;;;15.85;89.87;101696.16;5003132;28;20038;-74
2021/08/30 07:22:54;;;;;;;35.58;19.70;;;;;;;15.77;90.36;101699.63;4987958;28;20034;-74
2021/08/30 07:25:20;;;;;;;33.78;17.60;;;;;;;15.87;90.50;101699.44;4986764;28;20038;-73
2021/08/30 07:27:45;;;;;;;30.98;17.77;;;;;;;15.91;90.13;101702.53;5003375;28;21391;-74
2021/08/30 07:30:11;;;;;;;26.13;16.50;;;;;;;15.82;90.76;101706.16;5001715;28;20100;-74
2021/08/30 07:32:37;;;;;;;38.10;19.08;;;;;;;15.86;90.26;101695.19;4987391;28;20120;-74
2021/08/30 07:35:02;;;;;;;29.58;17.23;;;;;;;15.87;90.05;101698.63;5002639;28;20104;-74
2021/08/30 07:37:28;;;;;;;31.08;18.73;;;;;;;15.84;90.00;101698.94;4969466;28;20385;-76
2021/08/30 07:39:54;;;;;;;33.90;18.45;;;;;;;16.03;89.90;101698.56;4987563;28;20507;-76
2021/08/30 07:42:19;;;;;;;35.47;17.98;;;;;;;15.96;89.47;101702.84;4985461;28;20034;-73
2021/08/30 07:44:44;;;;;;;35.83;17.70;;;;;;;15.93;89.46;101708.41;5002553;28;20026;-75
2021/08/30 07:47:10;;;;;;;30.13;17.55;;;;;;;15.92;89.48;101706.78;5001823;28;20496;-74
2021/08/30 07:49:35;;;;;;;30.77;16.80;;;;;;;15.93;89.77;101697.94;4987561;28;20477;-73
2021/08/30 07:52:01;;;;;;;35.17;17.88;;;;;;;16.11;89.17;101705.56;4987180;28;20027;-75
2021/08/30 07:54:27;;;;;;;35.80;18.05;;;;;;;15.96;88.99;101711.50;5002071;28;20161;-74
2021/08/30 07:56:52;;;;;;;34.67;17.85;;;;;;;15.92;89.24;101707.59;4987186;28;20448;-74
2021/08/30 07:59:18;;;;;;;32.58;17.98;;;;;;;15.93;89.39;101714.44;4987860;28;20038;-73
2021/08/30 08:01:44;;;;;;;28.98;16.85;;;;;;;15.98;89.75;101728.84;4990704;28;20061;-74
2021/08/30 08:04:09;;;;;;;32.78;19.48;;;;;;;15.99;89.58;101722.59;5005952;28;20400;-74
2021/08/30 08:06:35;;;;;;;32.28;18.45;;;;;;;16.00;89.79;101730.28;4991101;28;20046;-74
2021/08/30 08:09:01;;;;;;;28.17;17.70;;;;;;;16.11;89.42;101731.72;4990815;28;20061;-74
2021/08/30 08:11:26;;;;;;;34.45;19.65;;;;;;;16.12;89.27;101731.56;4992214;28;20019;-74
2021/08/30 08:13:51;;;;;;;29.77;17.05;;;;;;;16.10;88.92;101730.88;5005542;28;20096;-74
2021/08/30 08:16:17;;;;;;;31.95;18.55;;;;;;;16.23;88.51;101732.97;4990421;28;20138;-73
2021/08/30 08:18:43;;;;;;;32.15;18.83;;;;;;;16.27;88.12;101736.06;4993957;28;20117;-74
2021/08/30 08:21:09;;;;;;;35.55;18.58;;;;;;;16.23;87.67;101737.38;4987893;28;20480;-74
2021/08/30 08:23:36;;;;;;;28.98;18.05;;;;;;;16.27;87.78;101738.66;4987409;28;20053;-75
2021/08/30 08:26:01;;;;;;;30.75;18.50;;;;;;;16.27;87.01;101736.06;4993516;28;20034;-75
2021/08/30 08:28:27;;;;;;;32.25;18.23;;;;;;;16.34;87.40;101735.19;4988654;28;20042;-75
2021/08/30 08:30:53;;;;;;;32.20;17.45;;;;;;;16.37;86.75;101739.28;4989192;28;20036;-74
2021/08/30 08:33:18;;;;;;;30.25;17.67;;;;;;;16.36;87.04;101735.03;4990494;28;20045;-74
2021/08/30 08:35:44;;;;;;;32.83;19.33;;;;;;;16.43;87.20;101740.41;4990002;28;20042;-74
2021/08/30 08:38:11;;;;;;;30.00;18.27;;;;;;;16.47;86.80;101744.31;4985919;28;20038;-76
2021/08/30 08:40:37;;;;;;;30.25;18.40;;;;;;;16.42;87.16;101739.56;4987329;28;20034;-74
2021/08/30 08:43:10;;;;;;;33.42;17.77;;;;;;;16.38;86.95;101738.28;5003861;28;20029;-75
2021/08/30 08:45:36;;;;;;;;;;;;;;;16.38;86.89;101740.09;4988773;28;20030;-73
2021/08/30 08:48:03;;;;;;;27.67;17.33;;;;;;;16.44;86.42;101740.22;4991542;28;19967;-75
2021/08/30 08:50:30;;;;;;;31.15;17.13;;;;;;;16.42;86.61;101739.56;4991247;28;20041;-75
2021/08/30 08:52:55;;;;;;;32.65;17.75;;;;;;;16.45;86.50;101743.66;4991263;28;20100;-76
2021/08/30 08:55:21;;;;;;;26.10;16.77;;;;;;;16.40;87.29;101736.31;5005809;28;20042;-75
2021/08/30 08:57:46;;;;;;;34.58;17.55;;;;;;;16.42;86.72;101736.94;4986412;28;20359;-75
2021/08/30 09:00:14;;;;;;;33.20;18.13;;;;;;;16.50;86.72;101743.94;4984939;28;20042;-74
2021/08/30 09:02:39;;;;;;;31.88;16.50;;;;;;;16.53;86.84;101743.63;5003035;28;20543;-74
2021/08/30 09:05:08;;;;;;;24.67;16.52;;;;;;;16.58;85.99;101737.88;4989988;28;20030;-74
2021/08/30 09:07:37;;;;;;;24.80;16.20;;;;;;;16.61;85.83;101734.91;4984605;28;20042;-75
2021/08/30 09:10:04;;;;;;;28.75;16.75;;;;;;;16.71;86.02;101732.88;5000993;28;20037;-75
2021/08/30 09:12:29;;;;;;;28.55;16.40;;;;;;;16.85;85.56;101737.38;4985301;28;20396;-74
2021/08/30 09:14:55;;;;;;;29.90;17.48;;;;;;;16.99;84.17;101730.59;5000526;28;20030;-74
2021/08/30 09:17:21;;;;;;;29.95;17.40;;;;;;;16.99;83.87;101730.59;4989733;28;20038;-75
2021/08/30 09:19:51;;;;;;;28.65;16.65;;;;;;;16.99;83.83;101725.34;5004356;28;20053;-73
2021/08/30 09:22:27;;;;;;;24.80;16.67;;;;;;;17.10;84.31;101727.53;5002132;28;20304;-74
2021/08/30 09:25:04;;;;;;;29.02;16.65;;;;;;;17.14;84.26;101725.38;5000922;28;20041;-75
2021/08/30 09:27:37;;;;;;;25.95;16.80;;;;;;;17.28;83.43;101727.22;5001135;28;20121;-75
2021/08/30 09:30:06;;;;;;;27.27;17.05;;;;;;;17.23;83.68;101732.16;4990551;28;20208;-75
2021/08/30 09:32:34;;;;;;;25.77;16.33;;;;;;;17.32;83.91;101727.66;5005282;28;20030;-75
2021/08/30 09:35:02;;;;;;;26.73;16.52;;;;;;;17.42;82.80;101732.66;4997889;28;20133;-75
2021/08/30 09:37:28;;;;;;;30.95;16.55;;;;;;;17.57;83.11;101730.06;5002654;28;20164;-74
2021/08/30 09:39:56;;;;;;;28.75;16.73;;;;;;;17.73;82.59;101727.25;4992707;28;20034;-74
2021/08/30 09:42:23;;;;;;;25.38;16.48;;;;;;;17.78;81.29;101730.16;4998705;28;20030;-74
2021/08/30 09:44:48;;;;;;;25.30;16.42;;;;;;;17.94;81.71;101733.63;4999121;28;20130;-76
2021/08/30 09:47:20;;;;;;;29.92;16.48;;;;;;;18.09;79.74;101731.78;5001287;28;20396;-77
2021/08/30 09:49:53;;;;;;;27.75;14.43;;;;;;;18.28;78.49;101730.41;4984778;28;20041;-72
2021/08/30 09:52:22;;;;;;;24.08;15.23;;;;;;;18.22;78.60;101731.97;4982127;28;20508;-74
2021/08/30 09:54:49;;;;;;;26.58;14.52;;;;;;;18.19;78.02;101727.06;4988471;28;20034;-74
2021/08/30 09:57:15;;;;;;;21.17;14.57;;;;;;;18.13;77.95;101722.56;4985987;28;20054;-76
2021/08/30 09:59:46;;;;;;;22.30;14.23;;;;;;;18.19;77.97;101723.63;4983992;28;20554;-73
2021/08/30 10:02:14;;;;;;;22.77;14.05;;;;;;;18.27;79.04;101723.50;4986328;28;20053;-76
2021/08/30 10:04:41;;;;;;;22.20;14.13;;;;;;;18.21;77.79;101729.50;4998940;28;20323;-73
2021/08/30 10:07:08;;;;;;;22.33;14.13;;;;;;;18.19;78.09;101724.44;4986148;28;20038;-75
2021/08/30 10:09:34;;;;;;;23.38;14.18;;;;;;;18.09;77.77;101721.31;4993078;28;20432;-75
2021/08/30 10:12:00;;;;;;;29.08;14.88;;;;;;;18.11;78.67;101714.06;4991490;28;20072;-77
2021/08/30 10:14:28;;;;;;;25.67;14.82;;;;;;;18.06;78.51;101722.50;5008721;28;20034;-76
2021/08/30 10:16:56;;;;;;;25.83;13.60;;;;;;;18.06;78.40;101712.00;5009443;28;20064;-77
2021/08/30 10:19:28;;;;;;;30.15;14.77;;;;;;;18.18;77.78;101714.16;4973174;28;20121;-77
2021/08/30 10:21:54;;;;;;;25.08;14.98;;;;;;;18.18;79.38;101725.44;4993257;28;20635;-74
2021/08/30 10:24:20;;;;;;;23.35;13.48;;;;;;;18.59;77.55;101705.69;5005188;28;20025;-76
2021/08/30 10:26:47;;;;;;;23.95;14.55;;;;;;;19.01;76.66;101712.78;4983997;28;20034;-76
2021/08/30 10:29:14;;;;;;;22.85;14.73;;;;;;;19.32;76.16;101711.56;4980654;28;20113;-74
2021/08/30 10:31:51;;;;;;;24.27;13.15;;;;;;;19.41;74.17;101712.25;4985908;28;20520;-75
2021/08/30 10:34:32;;;;;;;24.77;13.63;;;;;;;19.35;74.58;101708.56;5010536;28;20030;-76
2021/08/30 10:37:00;;;;;;;21.77;12.55;;;;;;;19.38;74.85;101710.00;4982935;28;20045;-77
2021/08/30 10:39:55;;;;;;;24.80;15.40;;;;;;;19.43;73.60;101704.97;4966619;28;20031;-73
2021/08/30 10:42:21;;;;;;;18.13;12.40;;;;;;;19.43;72.68;101702.34;4976256;28;20042;-73
2021/08/30 10:45:03;;;;;;;17.30;12.48;;;;;;;19.33;72.26;101704.53;5001532;28;20069;-77
2021/08/30 10:47:34;;;;;;;24.80;13.05;;;;;;;19.39;71.80;101701.91;4997866;28;20042;-80
2021/08/30 10:50:00;;;;;;;16.75;11.10;;;;;;;19.36;70.39;101697.03;4982610;28;20030;-80
2021/08/30 10:52:37;;;;;;;17.50;11.80;;;;;;;19.53;71.06;101699.38;4987452;28;20044;-77
2021/08/30 10:55:18;;;;;;;20.50;12.02;;;;;;;19.51;71.97;101694.28;5016357;28;20077;-77
2021/08/30 10:57:52;;;;;;;20.00;11.95;;;;;;;19.58;73.37;101692.53;5003415;28;20405;-77
2021/08/30 11:00:29;;;;;;;18.60;12.25;;;;;;;19.70;72.05;101689.34;4972351;28;20097;-79
2021/08/30 11:02:55;;;;;;;21.70;12.45;;;;;;;19.69;71.78;101700.88;4985276;28;20034;-77
2021/08/30 11:05:26;;;;;;;21.48;11.73;;;;;;;19.80;70.92;101703.00;5000935;28;20096;-78
2021/08/30 11:07:52;;;;;;;17.17;11.40;;;;;;;19.77;70.49;101708.63;5003132;28;20030;-79
2021/08/30 11:10:19;;;;;;;26.98;11.45;;;;;;;19.58;71.92;101700.41;5000791;28;20061;-77
2021/08/30 11:12:45;;;;;;;22.55;11.25;;;;;;;19.49;70.55;101709.47;5011686;28;20038;-77
2021/08/30 11:15:11;;;;;;;16.88;11.05;;;;;;;19.31;72.39;101706.50;4989470;28;20448;-77